sensor_id;sensor_type;location;lat;lon;timestamp;temperature;humidity
55331;DHT22;58851;42.984;20.336;2023-05-03T00:00:19;332.90;128.00
55331;DHT22;58851;42.984;20.336;2023-05-03T00:02:45;332.80;128.00
55331;DHT22;58851;42.984;20.336;2023-05-03T00:05:11;332.90;128.00
55331;DHT22;58851;42.984;20.336;2023-05-03T00:07:41;332.80;128.00
55331;DHT22;58851;42.984;20.336;2023-05-03T00:10:08;332.80;128.00
55331;DHT22;58851;42.984;20.336;2023-05-03T00:12:37;308.10;128.00
55331;DHT22;58851;42.984;20.336;2023-05-03T00:15:03;308.00;128.00
55331;DHT22;58851;42.984;20.336;2023-05-03T00:17:29;308.00;128.00
55331;DHT22;58851;42.984;20.336;2023-05-03T00:19:55;307.90;128.00
55331;DHT22;58851;42.984;20.336;2023-05-03T00:22:21;308.00;128.00
55331;DHT22;58851;42.984;20.336;2023-05-03T00:24:48;307.90;128.00
55331;DHT22;58851;42.984;20.336;2023-05-03T00:27:18;307.80;128.00
55331;DHT22;58851;42.984;20.336;2023-05-03T00:29:45;307.80;128.00
55331;DHT22;58851;42.984;20.336;2023-05-03T00:32:11;307.70;128.00
55331;DHT22;58851;42.984;20.336;2023-05-03T00:34:37;307.70;128.00
55331;DHT22;58851;42.984;20.336;2023-05-03T00:37:03;307.70;128.00
55331;DHT22;58851;42.984;20.336;2023-05-03T00:39:29;307.80;128.00
55331;DHT22;58851;42.984;20.336;2023-05-03T00:41:59;307.90;128.00
55331;DHT22;58851;42.984;20.336;2023-05-03T00:44:26;307.90;128.00
55331;DHT22;58851;42.984;20.336;2023-05-03T00:46:53;307.80;128.00
55331;DHT22;58851;42.984;20.336;2023-05-03T00:49:20;307.80;128.00
55331;DHT22;58851;42.984;20.336;2023-05-03T00:51:46;307.80;128.00
55331;DHT22;58851;42.984;20.336;2023-05-03T00:54:13;307.80;128.00
55331;DHT22;58851;42.984;20.336;2023-05-03T00:56:39;307.80;128.00
55331;DHT22;58851;42.984;20.336;2023-05-03T00:59:05;307.80;128.00
55331;DHT22;58851;42.984;20.336;2023-05-03T01:01:31;307.80;128.00
55331;DHT22;58851;42.984;20.336;2023-05-03T01:03:59;307.80;128.00
55331;DHT22;58851;42.984;20.336;2023-05-03T01:10:03;307.80;128.00
55331;DHT22;58851;42.984;20.336;2023-05-03T01:17:21;307.90;128.00
55331;DHT22;58851;42.984;20.336;2023-05-03T01:19:52;307.80;128.00
55331;DHT22;58851;42.984;20.336;2023-05-03T01:24:56;307.90;128.00
55331;DHT22;58851;42.984;20.336;2023-05-03T01:27:24;307.90;128.00
55331;DHT22;58851;42.984;20.336;2023-05-03T01:29:50;307.90;128.00
55331;DHT22;58851;42.984;20.336;2023-05-03T01:32:21;307.90;128.00
55331;DHT22;58851;42.984;20.336;2023-05-03T01:35:15;307.90;128.00
55331;DHT22;58851;42.984;20.336;2023-05-03T01:37:42;307.90;128.00
55331;DHT22;58851;42.984;20.336;2023-05-03T01:40:10;307.90;128.00
55331;DHT22;58851;42.984;20.336;2023-05-03T01:42:41;307.90;128.00
55331;DHT22;58851;42.984;20.336;2023-05-03T01:45:08;307.80;128.00
55331;DHT22;58851;42.984;20.336;2023-05-03T01:47:34;307.80;179.20
55331;DHT22;58851;42.984;20.336;2023-05-03T01:50:00;307.90;128.00
55331;DHT22;58851;42.984;20.336;2023-05-03T01:52:26;307.90;204.80
55331;DHT22;58851;42.984;20.336;2023-05-03T01:54:52;307.90;153.60
55331;DHT22;58851;42.984;20.336;2023-05-03T01:57:17;307.90;128.00
55331;DHT22;58851;42.984;20.336;2023-05-03T01:59:43;307.90;128.00
55331;DHT22;58851;42.984;20.336;2023-05-03T02:02:09;307.80;204.80
55331;DHT22;58851;42.984;20.336;2023-05-03T02:04:35;307.80;128.00
55331;DHT22;58851;42.984;20.336;2023-05-03T02:07:00;307.90;153.60
55331;DHT22;58851;42.984;20.336;2023-05-03T02:09:26;307.90;128.00
55331;DHT22;58851;42.984;20.336;2023-05-03T02:11:52;307.90;128.00
55331;DHT22;58851;42.984;20.336;2023-05-03T02:14:18;307.90;128.00
55331;DHT22;58851;42.984;20.336;2023-05-03T02:16:43;307.90;230.40
55331;DHT22;58851;42.984;20.336;2023-05-03T02:19:10;308.00;128.00
55331;DHT22;58851;42.984;20.336;2023-05-03T02:21:36;307.90;128.00
55331;DHT22;58851;42.984;20.336;2023-05-03T02:24:02;307.90;128.00
55331;DHT22;58851;42.984;20.336;2023-05-03T02:26:28;307.90;128.00
55331;DHT22;58851;42.984;20.336;2023-05-03T02:28:54;307.90;128.00
55331;DHT22;58851;42.984;20.336;2023-05-03T02:31:23;307.90;128.00
55331;DHT22;58851;42.984;20.336;2023-05-03T02:33:49;307.90;128.00
55331;DHT22;58851;42.984;20.336;2023-05-03T02:36:15;307.90;128.00
55331;DHT22;58851;42.984;20.336;2023-05-03T02:38:41;307.90;128.00
55331;DHT22;58851;42.984;20.336;2023-05-03T02:41:06;307.90;128.00
55331;DHT22;58851;42.984;20.336;2023-05-03T02:43:32;307.90;128.00
55331;DHT22;58851;42.984;20.336;2023-05-03T02:45:58;307.90;128.00
55331;DHT22;58851;42.984;20.336;2023-05-03T02:48:24;307.90;128.00
55331;DHT22;58851;42.984;20.336;2023-05-03T02:50:50;307.90;128.00
55331;DHT22;58851;42.984;20.336;2023-05-03T02:53:15;307.90;128.00
55331;DHT22;58851;42.984;20.336;2023-05-03T02:55:42;307.90;128.00
55331;DHT22;58851;42.984;20.336;2023-05-03T02:58:08;308.00;128.00
55331;DHT22;58851;42.984;20.336;2023-05-03T03:00:34;308.00;128.00
55331;DHT22;58851;42.984;20.336;2023-05-03T03:03:01;307.90;128.00
55331;DHT22;58851;42.984;20.336;2023-05-03T03:05:26;307.90;128.00
55331;DHT22;58851;42.984;20.336;2023-05-03T03:07:52;307.90;128.00
55331;DHT22;58851;42.984;20.336;2023-05-03T03:10:18;307.70;128.00
55331;DHT22;58851;42.984;20.336;2023-05-03T03:12:44;307.70;128.00
55331;DHT22;58851;42.984;20.336;2023-05-03T03:15:10;307.80;128.00
55331;DHT22;58851;42.984;20.336;2023-05-03T03:17:36;307.80;128.00
55331;DHT22;58851;42.984;20.336;2023-05-03T03:20:07;307.80;128.00
55331;DHT22;58851;42.984;20.336;2023-05-03T03:22:38;307.70;128.00
55331;DHT22;58851;42.984;20.336;2023-05-03T03:25:04;307.70;128.00
55331;DHT22;58851;42.984;20.336;2023-05-03T03:27:31;307.80;128.00
55331;DHT22;58851;42.984;20.336;2023-05-03T03:29:57;307.80;128.00
55331;DHT22;58851;42.984;20.336;2023-05-03T03:32:23;307.70;128.00
55331;DHT22;58851;42.984;20.336;2023-05-03T03:34:49;307.80;128.00
55331;DHT22;58851;42.984;20.336;2023-05-03T03:37:16;307.80;128.00
55331;DHT22;58851;42.984;20.336;2023-05-03T03:39:42;307.70;128.00
55331;DHT22;58851;42.984;20.336;2023-05-03T03:42:10;307.80;128.00
55331;DHT22;58851;42.984;20.336;2023-05-03T03:44:37;307.70;128.00
55331;DHT22;58851;42.984;20.336;2023-05-03T03:47:03;307.70;128.00
55331;DHT22;58851;42.984;20.336;2023-05-03T03:49:29;307.70;128.00
55331;DHT22;58851;42.984;20.336;2023-05-03T03:51:55;307.60;128.00
55331;DHT22;58851;42.984;20.336;2023-05-03T03:54:20;307.60;128.00
55331;DHT22;58851;42.984;20.336;2023-05-03T03:56:46;307.60;179.20
55331;DHT22;58851;42.984;20.336;2023-05-03T03:59:12;307.60;179.20
55331;DHT22;58851;42.984;20.336;2023-05-03T04:01:38;307.60;128.00
55331;DHT22;58851;42.984;20.336;2023-05-03T04:04:04;307.70;256.00
55331;DHT22;58851;42.984;20.336;2023-05-03T04:06:29;307.70;128.00
55331;DHT22;58851;42.984;20.336;2023-05-03T04:08:57;307.80;128.00
55331;DHT22;58851;42.984;20.336;2023-05-03T04:11:23;307.70;128.00
55331;DHT22;58851;42.984;20.336;2023-05-03T04:13:49;307.70;128.00
55331;DHT22;58851;42.984;20.336;2023-05-03T04:16:15;307.80;128.00
55331;DHT22;58851;42.984;20.336;2023-05-03T04:18:41;307.80;153.60
55331;DHT22;58851;42.984;20.336;2023-05-03T04:21:07;307.80;179.20
55331;DHT22;58851;42.984;20.336;2023-05-03T04:23:33;307.90;230.40
55331;DHT22;58851;42.984;20.336;2023-05-03T04:25:59;307.90;128.00
55331;DHT22;58851;42.984;20.336;2023-05-03T04:28:24;307.90;230.40
55331;DHT22;58851;42.984;20.336;2023-05-03T04:30:52;307.90;128.00
55331;DHT22;58851;42.984;20.336;2023-05-03T04:33:19;307.90;179.20
55331;DHT22;58851;42.984;20.336;2023-05-03T04:35:48;307.80;179.20
55331;DHT22;58851;42.984;20.336;2023-05-03T04:38:15;307.90;179.20
55331;DHT22;58851;42.984;20.336;2023-05-03T04:40:43;307.90;128.00
55331;DHT22;58851;42.984;20.336;2023-05-03T04:43:09;308.00;128.00
55331;DHT22;58851;42.984;20.336;2023-05-03T04:45:36;307.90;153.60
55331;DHT22;58851;42.984;20.336;2023-05-03T04:48:02;307.90;307.20
55331;DHT22;58851;42.984;20.336;2023-05-03T04:50:30;307.90;230.40
55331;DHT22;58851;42.984;20.336;2023-05-03T04:52:56;307.90;486.40
55331;DHT22;58851;42.984;20.336;2023-05-03T04:55:22;308.00;614.40
55331;DHT22;58851;42.984;20.336;2023-05-03T04:57:48;307.80;307.20
55331;DHT22;58851;42.984;20.336;2023-05-03T05:00:14;307.80;332.80
55331;DHT22;58851;42.984;20.336;2023-05-03T05:02:41;307.90;204.80
55331;DHT22;58851;42.984;20.336;2023-05-03T05:05:07;308.00;128.00
55331;DHT22;58851;42.984;20.336;2023-05-03T05:07:34;308.10;128.00
55331;DHT22;58851;42.984;20.336;2023-05-03T05:10:00;332.90;128.00
55331;DHT22;58851;42.984;20.336;2023-05-03T05:12:26;333.00;128.00
55331;DHT22;58851;42.984;20.336;2023-05-03T05:14:52;333.10;128.00
55331;DHT22;58851;42.984;20.336;2023-05-03T05:17:17;333.10;128.00
55331;DHT22;58851;42.984;20.336;2023-05-03T05:19:43;333.30;128.00
55331;DHT22;58851;42.984;20.336;2023-05-03T05:22:09;333.30;204.80
55331;DHT22;58851;42.984;20.336;2023-05-03T05:24:35;333.30;128.00
55331;DHT22;58851;42.984;20.336;2023-05-03T05:27:01;333.50;128.00
55331;DHT22;58851;42.984;20.336;2023-05-03T05:29:27;333.50;128.00
55331;DHT22;58851;42.984;20.336;2023-05-03T05:31:53;333.60;128.00
55331;DHT22;58851;42.984;20.336;2023-05-03T05:34:18;333.70;128.00
55331;DHT22;58851;42.984;20.336;2023-05-03T05:36:44;333.70;128.00
55331;DHT22;58851;42.984;20.336;2023-05-03T05:39:10;358.40;128.00
55331;DHT22;58851;42.984;20.336;2023-05-03T05:41:36;358.50;128.00
55331;DHT22;58851;42.984;20.336;2023-05-03T05:44:02;358.50;128.00
55331;DHT22;58851;42.984;20.336;2023-05-03T05:46:28;358.60;128.00
55331;DHT22;58851;42.984;20.336;2023-05-03T05:48:54;358.60;128.00
55331;DHT22;58851;42.984;20.336;2023-05-03T05:51:20;358.70;128.00
55331;DHT22;58851;42.984;20.336;2023-05-03T05:53:45;358.90;128.00
55331;DHT22;58851;42.984;20.336;2023-05-03T05:56:11;359.00;128.00
55331;DHT22;58851;42.984;20.336;2023-05-03T05:58:37;359.10;128.00
55331;DHT22;58851;42.984;20.336;2023-05-03T06:01:03;359.30;128.00
55331;DHT22;58851;42.984;20.336;2023-05-03T06:03:29;359.20;128.00
55331;DHT22;58851;42.984;20.336;2023-05-03T06:05:56;384.00;128.00
55331;DHT22;58851;42.984;20.336;2023-05-03T06:08:22;384.10;128.00
55331;DHT22;58851;42.984;20.336;2023-05-03T06:10:48;384.20;128.00
55331;DHT22;58851;42.984;20.336;2023-05-03T06:13:14;384.30;128.00
55331;DHT22;58851;42.984;20.336;2023-05-03T06:15:40;384.40;128.00
55331;DHT22;58851;42.984;20.336;2023-05-03T06:18:06;384.30;128.00
55331;DHT22;58851;42.984;20.336;2023-05-03T06:20:32;384.30;128.00
55331;DHT22;58851;42.984;20.336;2023-05-03T06:22:58;384.50;128.00
55331;DHT22;58851;42.984;20.336;2023-05-03T06:25:23;384.60;128.00
55331;DHT22;58851;42.984;20.336;2023-05-03T06:27:50;384.70;128.00
55331;DHT22;58851;42.984;20.336;2023-05-03T06:30:15;384.80;128.00
55331;DHT22;58851;42.984;20.336;2023-05-03T06:32:41;384.90;128.00
55331;DHT22;58851;42.984;20.336;2023-05-03T06:35:08;384.90;128.00
55331;DHT22;58851;42.984;20.336;2023-05-03T06:37:34;409.60;128.00
55331;DHT22;58851;42.984;20.336;2023-05-03T06:40:01;409.80;128.00
55331;DHT22;58851;42.984;20.336;2023-05-03T06:42:26;409.60;128.00
55331;DHT22;58851;42.984;20.336;2023-05-03T06:44:52;384.90;128.00
55331;DHT22;58851;42.984;20.336;2023-05-03T06:47:18;384.80;128.00
55331;DHT22;58851;42.984;20.336;2023-05-03T06:49:46;384.70;128.00
55331;DHT22;58851;42.984;20.336;2023-05-03T06:52:12;384.70;128.00
55331;DHT22;58851;42.984;20.336;2023-05-03T06:54:37;384.90;128.00
55331;DHT22;58851;42.984;20.336;2023-05-03T06:57:04;384.90;128.00
55331;DHT22;58851;42.984;20.336;2023-05-03T06:59:32;384.90;128.00
55331;DHT22;58851;42.984;20.336;2023-05-03T07:01:58;409.60;128.00
55331;DHT22;58851;42.984;20.336;2023-05-03T07:04:23;384.90;128.00
55331;DHT22;58851;42.984;20.336;2023-05-03T07:06:49;409.60;128.00
55331;DHT22;58851;42.984;20.336;2023-05-03T07:09:15;384.90;128.00
55331;DHT22;58851;42.984;20.336;2023-05-03T07:11:42;384.80;128.00
55331;DHT22;58851;42.984;20.336;2023-05-03T07:14:14;384.90;128.00
55331;DHT22;58851;42.984;20.336;2023-05-03T07:16:46;384.80;128.00
55331;DHT22;58851;42.984;20.336;2023-05-03T07:19:12;384.80;128.00
55331;DHT22;58851;42.984;20.336;2023-05-03T07:21:37;384.70;128.00
55331;DHT22;58851;42.984;20.336;2023-05-03T07:24:04;384.70;128.00
55331;DHT22;58851;42.984;20.336;2023-05-03T07:26:30;384.70;128.00
55331;DHT22;58851;42.984;20.336;2023-05-03T07:28:55;384.60;128.00
55331;DHT22;58851;42.984;20.336;2023-05-03T07:31:22;384.70;128.00
55331;DHT22;58851;42.984;20.336;2023-05-03T07:33:49;384.60;128.00
55331;DHT22;58851;42.984;20.336;2023-05-03T07:36:15;384.30;128.00
55331;DHT22;58851;42.984;20.336;2023-05-03T07:38:41;384.30;128.00
55331;DHT22;58851;42.984;20.336;2023-05-03T07:41:06;384.30;128.00
55331;DHT22;58851;42.984;20.336;2023-05-03T07:43:32;384.30;128.00
55331;DHT22;58851;42.984;20.336;2023-05-03T07:45:58;384.40;128.00
55331;DHT22;58851;42.984;20.336;2023-05-03T07:48:24;384.50;128.00
55331;DHT22;58851;42.984;20.336;2023-05-03T07:50:49;384.50;128.00
55331;DHT22;58851;42.984;20.336;2023-05-03T07:53:15;384.60;128.00
55331;DHT22;58851;42.984;20.336;2023-05-03T07:55:41;384.40;128.00
55331;DHT22;58851;42.984;20.336;2023-05-03T07:58:07;384.60;128.00
55331;DHT22;58851;42.984;20.336;2023-05-03T08:00:33;384.80;128.00
55331;DHT22;58851;42.984;20.336;2023-05-03T08:02:59;384.90;128.00
55331;DHT22;58851;42.984;20.336;2023-05-03T08:05:26;409.60;128.00
55331;DHT22;58851;42.984;20.336;2023-05-03T08:07:52;409.80;128.00
55331;DHT22;58851;42.984;20.336;2023-05-03T08:10:18;409.80;128.00
55331;DHT22;58851;42.984;20.336;2023-05-03T08:12:44;409.80;128.00
55331;DHT22;58851;42.984;20.336;2023-05-03T08:15:10;410.00;128.00
55331;DHT22;58851;42.984;20.336;2023-05-03T08:17:43;410.10;128.00
55331;DHT22;58851;42.984;20.336;2023-05-03T08:20:10;410.10;128.00
55331;DHT22;58851;42.984;20.336;2023-05-03T08:22:37;410.20;128.00
55331;DHT22;58851;42.984;20.336;2023-05-03T08:25:03;410.10;128.00
55331;DHT22;58851;42.984;20.336;2023-05-03T08:27:30;410.10;128.00
55331;DHT22;58851;42.984;20.336;2023-05-03T08:29:56;410.30;128.00
55331;DHT22;58851;42.984;20.336;2023-05-03T08:32:22;410.30;128.00
55331;DHT22;58851;42.984;20.336;2023-05-03T08:34:51;410.50;128.00
55331;DHT22;58851;42.984;20.336;2023-05-03T08:37:17;410.30;128.00
55331;DHT22;58851;42.984;20.336;2023-05-03T08:39:43;435.20;128.00
55331;DHT22;58851;42.984;20.336;2023-05-03T08:42:10;410.50;128.00
55331;DHT22;58851;42.984;20.336;2023-05-03T08:44:36;435.20;128.00
55331;DHT22;58851;42.984;20.336;2023-05-03T08:47:04;435.40;128.00
55331;DHT22;58851;42.984;20.336;2023-05-03T08:49:32;435.20;128.00
55331;DHT22;58851;42.984;20.336;2023-05-03T08:52:00;435.30;128.00
55331;DHT22;58851;42.984;20.336;2023-05-03T08:54:27;435.20;128.00
55331;DHT22;58851;42.984;20.336;2023-05-03T08:56:52;410.50;128.00
55331;DHT22;58851;42.984;20.336;2023-05-03T08:59:18;435.20;128.00
55331;DHT22;58851;42.984;20.336;2023-05-03T09:01:44;410.50;128.00
55331;DHT22;58851;42.984;20.336;2023-05-03T09:04:10;410.50;128.00
55331;DHT22;58851;42.984;20.336;2023-05-03T09:06:37;410.20;128.00
55331;DHT22;58851;42.984;20.336;2023-05-03T09:09:04;410.20;128.00
55331;DHT22;58851;42.984;20.336;2023-05-03T09:11:35;410.10;128.00
55331;DHT22;58851;42.984;20.336;2023-05-03T09:14:12;410.00;128.00
55331;DHT22;58851;42.984;20.336;2023-05-03T09:16:40;409.80;128.00
55331;DHT22;58851;42.984;20.336;2023-05-03T09:19:07;409.80;128.00
55331;DHT22;58851;42.984;20.336;2023-05-03T09:21:44;410.10;179.20
55331;DHT22;58851;42.984;20.336;2023-05-03T09:24:20;410.00;409.60
55331;DHT22;58851;42.984;20.336;2023-05-03T09:26:46;410.10;460.80
55331;DHT22;58851;42.984;20.336;2023-05-03T09:32:00;410.30;179.20
55331;DHT22;58851;42.984;20.336;2023-05-03T09:34:27;435.20;128.00
55331;DHT22;58851;42.984;20.336;2023-05-03T09:36:53;410.50;128.00
55331;DHT22;58851;42.984;20.336;2023-05-03T09:39:19;410.50;128.00
55331;DHT22;58851;42.984;20.336;2023-05-03T09:41:45;410.20;128.00
55331;DHT22;58851;42.984;20.336;2023-05-03T09:44:11;410.20;128.00
55331;DHT22;58851;42.984;20.336;2023-05-03T09:46:37;410.20;179.20
55331;DHT22;58851;42.984;20.336;2023-05-03T09:49:03;410.30;128.00
55331;DHT22;58851;42.984;20.336;2023-05-03T09:51:30;410.30;153.60
55331;DHT22;58851;42.984;20.336;2023-05-03T09:53:59;410.30;179.20
55331;DHT22;58851;42.984;20.336;2023-05-03T09:56:25;410.50;128.00
55331;DHT22;58851;42.984;20.336;2023-05-03T09:58:54;410.50;128.00
55331;DHT22;58851;42.984;20.336;2023-05-03T10:01:20;435.50;128.00
55331;DHT22;58851;42.984;20.336;2023-05-03T10:03:49;435.70;128.00
55331;DHT22;58851;42.984;20.336;2023-05-03T10:06:21;435.90;128.00
55331;DHT22;58851;42.984;20.336;2023-05-03T10:09:11;460.80;128.00
55331;DHT22;58851;42.984;20.336;2023-05-03T10:11:53;461.10;128.00
55331;DHT22;58851;42.984;20.336;2023-05-03T10:14:23;461.30;128.00
55331;DHT22;58851;42.984;20.336;2023-05-03T10:16:51;461.50;128.00
55331;DHT22;58851;42.984;20.336;2023-05-03T10:22:08;461.70;128.00
55331;DHT22;58851;42.984;20.336;2023-05-03T10:24:36;486.40;128.00
55331;DHT22;58851;42.984;20.336;2023-05-03T10:27:05;486.40;128.00
55331;DHT22;58851;42.984;20.336;2023-05-03T10:32:04;461.50;128.00
55331;DHT22;58851;42.984;20.336;2023-05-03T10:37:00;461.40;128.00
55331;DHT22;58851;42.984;20.336;2023-05-03T10:39:28;461.30;128.00
55331;DHT22;58851;42.984;20.336;2023-05-03T10:42:13;461.30;128.00
55331;DHT22;58851;42.984;20.336;2023-05-03T10:44:49;461.40;128.00
55331;DHT22;58851;42.984;20.336;2023-05-03T10:47:16;461.50;128.00
55331;DHT22;58851;42.984;20.336;2023-05-03T10:49:43;461.50;128.00
55331;DHT22;58851;42.984;20.336;2023-05-03T10:52:46;461.50;128.00
55331;DHT22;58851;42.984;20.336;2023-05-03T10:55:17;486.40;128.00
55331;DHT22;58851;42.984;20.336;2023-05-03T10:57:44;486.60;128.00
55331;DHT22;58851;42.984;20.336;2023-05-03T11:03:12;512.20;128.00
55331;DHT22;58851;42.984;20.336;2023-05-03T11:05:43;512.10;128.00
55331;DHT22;58851;42.984;20.336;2023-05-03T11:08:14;487.20;128.00
55331;DHT22;58851;42.984;20.336;2023-05-03T11:10:44;487.30;128.00
55331;DHT22;58851;42.984;20.336;2023-05-03T11:13:11;486.90;128.00
55331;DHT22;58851;42.984;20.336;2023-05-03T11:15:37;486.40;128.00
55331;DHT22;58851;42.984;20.336;2023-05-03T11:18:08;461.50;128.00
55331;DHT22;58851;42.984;20.336;2023-05-03T11:20:36;486.40;128.00
55331;DHT22;58851;42.984;20.336;2023-05-03T11:23:03;486.90;128.00
55331;DHT22;58851;42.984;20.336;2023-05-03T11:25:30;487.20;128.00
55331;DHT22;58851;42.984;20.336;2023-05-03T11:28:01;487.30;128.00
55331;DHT22;58851;42.984;20.336;2023-05-03T11:30:28;512.10;128.00
55331;DHT22;58851;42.984;20.336;2023-05-03T11:32:55;512.10;128.00
55331;DHT22;58851;42.984;20.336;2023-05-03T11:35:21;512.00;128.00
55331;DHT22;58851;42.984;20.336;2023-05-03T11:37:50;487.30;128.00
55331;DHT22;58851;42.984;20.336;2023-05-03T11:40:16;512.00;128.00
55331;DHT22;58851;42.984;20.336;2023-05-03T11:42:56;512.00;128.00
55331;DHT22;58851;42.984;20.336;2023-05-03T11:45:28;512.00;128.00
55331;DHT22;58851;42.984;20.336;2023-05-03T11:47:56;512.00;128.00
55331;DHT22;58851;42.984;20.336;2023-05-03T11:53:16;512.00;128.00
55331;DHT22;58851;42.984;20.336;2023-05-03T11:55:46;487.20;128.00
55331;DHT22;58851;42.984;20.336;2023-05-03T11:58:24;512.10;128.00
55331;DHT22;58851;42.984;20.336;2023-05-03T12:00:52;512.20;128.00
55331;DHT22;58851;42.984;20.336;2023-05-03T12:03:28;487.20;128.00
55331;DHT22;58851;42.984;20.336;2023-05-03T12:05:56;487.00;128.00
55331;DHT22;58851;42.984;20.336;2023-05-03T12:08:29;486.90;128.00
55331;DHT22;58851;42.984;20.336;2023-05-03T12:10:56;486.90;128.00
55331;DHT22;58851;42.984;20.336;2023-05-03T12:13:34;486.90;128.00
55331;DHT22;58851;42.984;20.336;2023-05-03T12:16:02;487.00;128.00
55331;DHT22;58851;42.984;20.336;2023-05-03T12:18:45;487.00;128.00
55331;DHT22;58851;42.984;20.336;2023-05-03T12:21:11;487.10;128.00
55331;DHT22;58851;42.984;20.336;2023-05-03T12:23:39;487.10;128.00
55331;DHT22;58851;42.984;20.336;2023-05-03T12:26:06;487.30;128.00
55331;DHT22;58851;42.984;20.336;2023-05-03T12:28:32;487.30;128.00
55331;DHT22;58851;42.984;20.336;2023-05-03T12:30:59;512.00;128.00
55331;DHT22;58851;42.984;20.336;2023-05-03T12:33:24;512.30;128.00
55331;DHT22;58851;42.984;20.336;2023-05-03T12:35:51;512.70;128.00
55331;DHT22;58851;42.984;20.336;2023-05-03T12:38:17;538.30;128.00
55331;DHT22;58851;42.984;20.336;2023-05-03T12:40:43;563.20;128.00
55331;DHT22;58851;42.984;20.336;2023-05-03T12:43:12;563.60;128.00
55331;DHT22;58851;42.984;20.336;2023-05-03T12:45:38;564.00;128.00
55331;DHT22;58851;42.984;20.336;2023-05-03T12:48:04;589.00;128.00
55331;DHT22;58851;42.984;20.336;2023-05-03T12:50:30;588.90;128.00
55331;DHT22;58851;42.984;20.336;2023-05-03T12:52:56;563.80;128.00
55331;DHT22;58851;42.984;20.336;2023-05-03T12:55:22;563.70;128.00
55331;DHT22;58851;42.984;20.336;2023-05-03T12:57:48;563.40;128.00
55331;DHT22;58851;42.984;20.336;2023-05-03T13:00:14;563.40;128.00
55331;DHT22;58851;42.984;20.336;2023-05-03T13:02:42;563.20;128.00
55331;DHT22;58851;42.984;20.336;2023-05-03T13:05:08;538.40;128.00
55331;DHT22;58851;42.984;20.336;2023-05-03T13:07:34;538.10;128.00
55331;DHT22;58851;42.984;20.336;2023-05-03T13:10:00;537.70;128.00
55331;DHT22;58851;42.984;20.336;2023-05-03T13:12:26;512.90;128.00
55331;DHT22;58851;42.984;20.336;2023-05-03T13:14:53;512.70;128.00
55331;DHT22;58851;42.984;20.336;2023-05-03T13:17:20;512.10;128.00
55331;DHT22;58851;42.984;20.336;2023-05-03T13:19:47;512.00;128.00
55331;DHT22;58851;42.984;20.336;2023-05-03T13:22:14;486.90;128.00
55331;DHT22;58851;42.984;20.336;2023-05-03T13:24:41;486.70;128.00
55331;DHT22;58851;42.984;20.336;2023-05-03T13:27:08;461.70;128.00
55331;DHT22;58851;42.984;20.336;2023-05-03T13:29:36;461.60;128.00
55331;DHT22;58851;42.984;20.336;2023-05-03T13:32:02;461.70;128.00
55331;DHT22;58851;42.984;20.336;2023-05-03T13:34:28;461.50;281.60
55331;DHT22;58851;42.984;20.336;2023-05-03T13:36:54;461.00;128.00
55331;DHT22;58851;42.984;20.336;2023-05-03T13:39:21;461.10;128.00
55331;DHT22;58851;42.984;20.336;2023-05-03T13:41:47;461.60;128.00
55331;DHT22;58851;42.984;20.336;2023-05-03T13:44:13;512.20;128.00
55331;DHT22;58851;42.984;20.336;2023-05-03T13:46:39;538.50;128.00
55331;DHT22;58851;42.984;20.336;2023-05-03T13:49:05;563.40;128.00
55331;DHT22;58851;42.984;20.336;2023-05-03T13:51:34;563.90;128.00
55331;DHT22;58851;42.984;20.336;2023-05-03T13:54:02;589.10;128.00
55331;DHT22;58851;42.984;20.336;2023-05-03T13:56:28;589.60;128.00
55331;DHT22;58851;42.984;20.336;2023-05-03T13:58:54;615.00;128.00
55331;DHT22;58851;42.984;20.336;2023-05-03T14:01:24;640.50;128.00
55331;DHT22;58851;42.984;20.336;2023-05-03T14:03:51;640.30;128.00
55331;DHT22;58851;42.984;20.336;2023-05-03T14:06:18;614.80;128.00
55331;DHT22;58851;42.984;20.336;2023-05-03T14:08:44;589.00;128.00
55331;DHT22;58851;42.984;20.336;2023-05-03T14:11:17;588.80;128.00
55331;DHT22;58851;42.984;20.336;2023-05-03T14:13:44;614.70;128.00
55331;DHT22;58851;42.984;20.336;2023-05-03T14:16:17;640.50;128.00
55331;DHT22;58851;42.984;20.336;2023-05-03T14:18:43;640.20;128.00
55331;DHT22;58851;42.984;20.336;2023-05-03T14:21:09;640.20;128.00
55331;DHT22;58851;42.984;20.336;2023-05-03T14:23:34;615.10;128.00
55331;DHT22;58851;42.984;20.336;2023-05-03T14:26:03;589.60;128.00
55331;DHT22;58851;42.984;20.336;2023-05-03T14:28:29;564.00;128.00
55331;DHT22;58851;42.984;20.336;2023-05-03T14:30:55;563.20;128.00
55331;DHT22;58851;42.984;20.336;2023-05-03T14:33:21;538.20;128.00
55331;DHT22;58851;42.984;20.336;2023-05-03T14:35:47;538.00;128.00
55331;DHT22;58851;42.984;20.336;2023-05-03T14:38:12;563.30;128.00
55331;DHT22;58851;42.984;20.336;2023-05-03T14:40:41;563.20;128.00
55331;DHT22;58851;42.984;20.336;2023-05-03T14:43:08;538.00;128.00
55331;DHT22;58851;42.984;20.336;2023-05-03T14:45:34;537.90;128.00
55331;DHT22;58851;42.984;20.336;2023-05-03T14:48:01;537.60;128.00
55331;DHT22;58851;42.984;20.336;2023-05-03T14:50:28;537.70;128.00
55331;DHT22;58851;42.984;20.336;2023-05-03T14:52:54;512.80;128.00
55331;DHT22;58851;42.984;20.336;2023-05-03T14:55:19;512.80;128.00
55331;DHT22;58851;42.984;20.336;2023-05-03T14:57:45;537.60;128.00
55331;DHT22;58851;42.984;20.336;2023-05-03T15:00:12;538.20;128.00
55331;DHT22;58851;42.984;20.336;2023-05-03T15:02:40;563.60;128.00
55331;DHT22;58851;42.984;20.336;2023-05-03T15:05:06;563.80;128.00
55331;DHT22;58851;42.984;20.336;2023-05-03T15:07:32;563.40;128.00
55331;DHT22;58851;42.984;20.336;2023-05-03T15:10:02;614.80;128.00
55331;DHT22;58851;42.984;20.336;2023-05-03T15:12:29;665.80;153.60
55331;DHT22;58851;42.984;20.336;2023-05-03T15:14:55;665.80;153.60